createdAt,value
2022-12-14T00:01:58.599Z,7.47
2022-12-14T00:04:25.918Z,6.32
2022-12-14T00:06:53.264Z,6.80
2022-12-14T00:09:20.641Z,6.50
2022-12-14T00:11:48.018Z,6.97
2022-12-14T00:14:15.750Z,6.97
2022-12-14T00:16:44.048Z,7.65
2022-12-14T00:19:12.028Z,7.32
2022-12-14T00:21:54.784Z,6.57
2022-12-14T00:24:22.203Z,7.03
2022-12-14T00:26:54.085Z,6.22
2022-12-14T00:29:24.288Z,6.05
2022-12-14T00:31:55.787Z,5.72
2022-12-14T00:34:23.773Z,6.95
2022-12-14T00:36:51.103Z,6.32
2022-12-14T00:39:18.510Z,7.00
2022-12-14T00:41:45.966Z,6.95
2022-12-14T00:44:13.605Z,8.02
2022-12-14T00:46:56.534Z,7.63
2022-12-14T00:49:23.895Z,8.13
2022-12-14T00:51:51.231Z,7.50
2022-12-14T00:54:18.796Z,7.25
2022-12-14T00:56:46.170Z,7.85
2022-12-14T00:59:13.558Z,6.95
2022-12-14T01:01:41.040Z,7.78
2022-12-14T01:04:23.966Z,7.90
2022-12-14T01:06:53.215Z,7.93
2022-12-14T01:09:22.301Z,7.70
2022-12-14T01:11:49.773Z,7.45
2022-12-14T01:14:19.206Z,6.63
2022-12-14T01:17:02.110Z,6.20
2022-12-14T01:19:29.571Z,6.35
2022-12-14T01:21:56.939Z,6.57
2022-12-14T01:24:24.417Z,5.85
2022-12-14T01:26:52.140Z,6.68
2022-12-14T01:29:19.466Z,6.13
2022-12-14T01:31:48.803Z,6.43
2022-12-14T01:34:31.946Z,5.47
2022-12-14T01:37:14.745Z,6.38
2022-12-14T01:39:42.156Z,6.50
2022-12-14T01:42:13.083Z,6.20
2022-12-14T01:44:54.306Z,6.57
2022-12-14T01:47:30.413Z,6.35
2022-12-14T01:50:09.670Z,6.63
2022-12-14T01:52:41.666Z,6.70
2022-12-14T01:55:18.920Z,6.25
2022-12-14T01:57:55.006Z,6.47
2022-12-14T02:00:23.279Z,6.20
2022-12-14T02:03:21.415Z,6.45
2022-12-14T02:06:09.221Z,7.07
2022-12-14T02:08:39.525Z,6.97
2022-12-14T02:11:07.633Z,6.93
2022-12-14T02:13:39.251Z,6.78
2022-12-14T02:16:07.508Z,6.53
2022-12-14T02:18:35.111Z,6.70
2022-12-14T02:21:28.078Z,6.25
2022-12-14T02:24:24.457Z,6.45
2022-12-14T02:27:05.461Z,6.78
2022-12-14T02:30:03.892Z,6.88
2022-12-14T02:33:02.960Z,7.97
2022-12-14T02:35:40.324Z,7.53
2022-12-14T02:38:28.550Z,7.25
2022-12-14T02:41:26.722Z,7.35
2022-12-14T02:44:10.584Z,6.75
2022-12-14T02:46:50.202Z,5.80
2022-12-14T02:49:53.302Z,6.22
2022-12-14T02:52:55.933Z,6.40
2022-12-14T02:55:31.293Z,6.95
2022-12-14T02:58:29.660Z,6.80
2022-12-14T03:00:57.831Z,6.15
2022-12-14T03:03:40.705Z,6.72
2022-12-14T03:09:17.721Z,6.40
2022-12-14T03:11:51.805Z,6.18
2022-12-14T03:14:27.901Z,7.25
2022-12-14T03:17:17.603Z,6.90
2022-12-14T03:19:56.358Z,6.72
2022-12-14T03:22:30.943Z,6.70
2022-12-14T03:25:08.982Z,6.80
2022-12-14T03:27:40.701Z,6.78
2022-12-14T03:30:13.717Z,6.13
2022-12-14T03:32:47.977Z,6.70
2022-12-14T03:35:23.911Z,6.93
2022-12-14T03:38:10.911Z,6.97
2022-12-14T03:40:47.158Z,7.60
2022-12-14T03:43:25.458Z,7.78
2022-12-14T03:46:04.396Z,6.47
2022-12-14T03:48:50.297Z,6.90
2022-12-14T03:51:33.736Z,6.25
2022-12-14T03:54:16.813Z,7.63
2022-12-14T03:57:05.921Z,6.82
2022-12-14T04:02:51.353Z,7.15
2022-12-14T04:05:34.690Z,7.30
2022-12-14T04:08:13.498Z,7.32
2022-12-14T04:11:00.763Z,7.43
2022-12-14T04:13:49.292Z,7.93
2022-12-14T04:16:38.405Z,7.60
2022-12-14T04:19:13.046Z,7.40
2022-12-14T04:21:51.692Z,6.80
2022-12-14T04:27:48.629Z,7.55
2022-12-14T04:30:31.634Z,6.90
2022-12-14T04:35:52.986Z,7.40
2022-12-14T04:38:27.764Z,8.25
2022-12-14T04:40:59.809Z,8.55
2022-12-14T04:43:30.815Z,7.78
2022-12-14T04:46:04.749Z,8.13
2022-12-14T04:48:54.921Z,9.18
2022-12-14T04:51:47.193Z,7.95
2022-12-14T04:54:22.687Z,8.10
2022-12-14T04:56:58.228Z,7.80
2022-12-14T04:59:25.950Z,8.45
2022-12-14T05:02:11.215Z,8.20
2022-12-14T05:04:57.255Z,8.80
2022-12-14T05:07:37.056Z,8.20
2022-12-14T05:10:51.041Z,8.68
2022-12-14T05:13:30.784Z,7.90
2022-12-14T05:15:59.551Z,8.77
2022-12-14T05:18:27.063Z,9.00
2022-12-14T05:20:54.441Z,8.77
2022-12-14T05:23:52.821Z,8.57
2022-12-14T05:26:20.217Z,8.00
2022-12-14T05:28:50.543Z,8.73
2022-12-14T05:31:18.036Z,8.52
2022-12-14T05:33:45.936Z,8.95
2022-12-14T05:36:13.263Z,9.05
2022-12-14T05:38:41.296Z,9.70
2022-12-14T05:41:08.633Z,9.47
2022-12-14T05:43:36.531Z,9.77
2022-12-14T05:46:05.660Z,9.63
2022-12-14T05:48:34.092Z,8.40
2022-12-14T05:51:07.756Z,8.77
2022-12-14T05:53:37.254Z,9.55
2022-12-14T05:56:07.181Z,9.63
2022-12-14T05:58:37.342Z,8.70
2022-12-14T06:01:14.113Z,8.77
2022-12-14T06:03:47.071Z,9.52
2022-12-14T06:06:15.237Z,9.30
2022-12-14T06:08:45.198Z,9.88
2022-12-14T06:11:15.757Z,10.00
2022-12-14T06:13:43.900Z,10.60
2022-12-14T06:16:17.147Z,9.63
2022-12-14T06:18:49.143Z,9.32
2022-12-14T06:21:18.473Z,10.15
2022-12-14T06:23:46.032Z,9.65
2022-12-14T06:26:14.830Z,10.05
2022-12-14T06:28:42.161Z,9.95
2022-12-14T06:31:16.739Z,8.88
2022-12-14T06:33:45.632Z,9.90
2022-12-14T06:36:20.303Z,9.35
2022-12-14T06:38:49.136Z,9.70
2022-12-14T06:41:20.704Z,10.15
2022-12-14T06:43:49.462Z,10.43
2022-12-14T06:46:20.666Z,9.85
2022-12-14T06:48:53.376Z,8.65
2022-12-14T06:51:22.305Z,8.93
2022-12-14T06:53:52.960Z,10.10
2022-12-14T06:56:28.935Z,9.55
2022-12-14T06:58:58.960Z,9.30
2022-12-14T07:01:30.508Z,9.73
2022-12-14T07:04:03.041Z,9.83
2022-12-14T07:06:36.624Z,9.45
2022-12-14T07:09:05.915Z,10.73
2022-12-14T07:11:33.641Z,10.45
2022-12-14T07:14:03.320Z,10.07
2022-12-14T07:16:31.091Z,10.10
2022-12-14T07:18:59.173Z,10.15
2022-12-14T07:21:26.901Z,10.25
2022-12-14T07:23:54.457Z,10.52
2022-12-14T07:26:25.045Z,10.50
2022-12-14T07:28:53.119Z,11.10
2022-12-14T07:31:23.376Z,10.40
2022-12-14T07:33:54.476Z,10.77
2022-12-14T07:36:23.873Z,11.35
2022-12-14T07:38:53.961Z,10.73
2022-12-14T07:41:24.452Z,10.63
2022-12-14T07:43:54.212Z,10.90
2022-12-14T07:46:25.405Z,10.73
2022-12-14T07:48:55.667Z,11.32
2022-12-14T07:51:26.788Z,11.38
2022-12-14T07:53:54.939Z,10.88
2022-12-14T07:56:26.409Z,10.30
2022-12-14T07:58:56.365Z,11.63
2022-12-14T08:01:26.948Z,11.75
2022-12-14T08:03:58.524Z,10.98
2022-12-14T08:06:28.119Z,11.57
2022-12-14T08:08:56.086Z,11.23
2022-12-14T08:11:24.308Z,10.82
2022-12-14T08:14:02.387Z,12.25
2022-12-14T08:16:30.912Z,12.60
2022-12-14T08:18:59.486Z,11.77
2022-12-14T08:21:27.581Z,11.52
2022-12-14T08:23:56.530Z,12.25
2022-12-14T08:26:30.018Z,12.40
2022-12-14T08:29:01.037Z,11.10
2022-12-14T08:31:28.906Z,11.95
2022-12-14T08:33:57.977Z,11.50
2022-12-14T08:36:29.055Z,10.50
2022-12-14T08:38:58.670Z,11.63
2022-12-14T08:41:27.389Z,11.70
2022-12-14T08:43:57.477Z,11.80
2022-12-14T08:46:26.237Z,10.50
2022-12-14T08:48:55.248Z,11.00
2022-12-14T08:51:24.229Z,10.63
2022-12-14T08:53:52.915Z,11.07
2022-12-14T08:56:24.385Z,10.57
2022-12-14T08:58:52.286Z,9.77
2022-12-14T09:01:25.745Z,10.77
2022-12-14T09:04:02.980Z,11.43
2022-12-14T09:06:34.314Z,10.85
2022-12-14T09:09:22.266Z,10.15
2022-12-14T09:15:21.626Z,10.90
2022-12-14T09:18:07.534Z,9.38
2022-12-14T09:20:39.608Z,9.30
2022-12-14T09:23:45.781Z,8.88
2022-12-14T09:26:24.887Z,9.57
2022-12-14T09:28:57.857Z,8.93
2022-12-14T09:31:32.274Z,10.00
2022-12-14T09:34:22.313Z,9.52
2022-12-14T09:37:08.397Z,10.25
2022-12-14T09:40:19.869Z,9.93
2022-12-14T09:43:08.520Z,10.15
2022-12-14T09:52:44.294Z,10.80
2022-12-14T09:56:32.438Z,10.02
2022-12-14T09:59:20.050Z,10.10
2022-12-14T10:11:58.712Z,8.95
2022-12-14T10:15:14.874Z,9.32
2022-12-14T10:18:58.110Z,9.90
2022-12-14T10:21:34.983Z,9.82
2022-12-14T10:24:21.603Z,10.70
2022-12-14T10:27:03.096Z,10.35
2022-12-14T10:35:59.685Z,9.30
2022-12-14T10:38:56.188Z,9.45
2022-12-14T10:42:33.086Z,9.00
2022-12-14T10:45:40.293Z,8.60
2022-12-14T10:48:43.834Z,8.70
2022-12-14T10:52:11.627Z,8.18
2022-12-14T10:55:05.715Z,7.40
2022-12-14T10:58:29.721Z,7.47
2022-12-14T11:01:06.975Z,6.30
2022-12-14T11:03:38.912Z,6.80
2022-12-14T11:06:22.433Z,6.28
2022-12-14T11:08:55.922Z,6.32
2022-12-14T11:11:28.495Z,6.53
2022-12-14T11:14:12.058Z,5.60
2022-12-14T11:16:43.168Z,5.47
2022-12-14T11:19:21.311Z,4.80
2022-12-14T11:22:06.202Z,5.00
2022-12-14T11:24:46.679Z,4.80
2022-12-14T11:27:23.319Z,4.40
2022-12-14T11:29:53.765Z,4.43
2022-12-14T11:32:25.964Z,3.85
2022-12-14T11:34:59.310Z,3.80
2022-12-14T11:37:32.506Z,3.45
2022-12-14T11:40:04.158Z,3.63
2022-12-14T11:42:35.341Z,3.50
2022-12-14T11:45:29.946Z,3.17
2022-12-14T11:48:23.415Z,3.10
2022-12-14T11:53:25.622Z,2.00
2022-12-14T11:56:00.390Z,2.08
2022-12-14T11:58:35.012Z,1.98
2022-12-14T12:01:12.727Z,1.85
2022-12-14T12:03:49.926Z,2.08
2022-12-14T12:06:30.154Z,1.83
2022-12-14T12:09:03.038Z,1.60
2022-12-14T12:11:33.665Z,1.70
2022-12-14T12:14:22.754Z,2.13
2022-12-14T12:16:53.348Z,1.40
2022-12-14T12:19:28.638Z,1.85
2022-12-14T12:21:59.643Z,1.70
2022-12-14T12:24:55.169Z,1.75
2022-12-14T12:27:27.276Z,1.58
2022-12-14T12:30:06.528Z,1.67
2022-12-14T12:32:42.729Z,1.80
2022-12-14T12:35:18.844Z,2.28
2022-12-14T12:37:53.398Z,2.13
2022-12-14T12:40:29.821Z,2.00
2022-12-14T12:43:18.639Z,2.20
2022-12-14T12:45:55.264Z,2.03
2022-12-14T12:48:32.640Z,2.25
2022-12-14T12:51:06.391Z,1.80
2022-12-14T12:53:39.197Z,2.20
2022-12-14T12:58:41.696Z,1.98
2022-12-14T13:01:21.832Z,1.77
2022-12-14T13:03:53.300Z,2.20
2022-12-14T13:06:41.514Z,2.47
2022-12-14T13:09:21.809Z,2.42
2022-12-14T13:11:49.622Z,1.95
2022-12-14T13:14:32.406Z,2.50
2022-12-14T13:17:04.719Z,2.80
2022-12-14T13:19:52.419Z,2.50
2022-12-14T13:22:29.773Z,3.53
2022-12-14T13:25:08.195Z,2.97
2022-12-14T13:28:03.152Z,2.70
2022-12-14T13:31:04.116Z,2.42
2022-12-14T13:34:10.467Z,2.55
2022-12-14T13:37:12.301Z,2.20
2022-12-14T13:40:18.444Z,2.25
2022-12-14T13:43:21.352Z,2.08
2022-12-14T13:45:51.309Z,2.13
2022-12-14T13:48:28.565Z,2.20
2022-12-14T13:51:04.919Z,2.60
2022-12-14T13:53:48.532Z,2.63
2022-12-14T13:56:32.456Z,2.50
2022-12-14T13:59:34.298Z,2.33
2022-12-14T14:02:07.295Z,2.90
2022-12-14T14:04:38.584Z,2.88
2022-12-14T14:07:41.614Z,3.78
2022-12-14T14:10:36.804Z,2.93
2022-12-14T14:13:35.270Z,3.13
2022-12-14T14:19:01.146Z,3.20
2022-12-14T14:21:58.838Z,2.80
2022-12-14T14:24:29.415Z,3.08
2022-12-14T14:27:11.539Z,2.83
2022-12-14T14:29:47.545Z,2.70
2022-12-14T14:32:35.016Z,2.83
2022-12-14T14:35:09.482Z,3.25
2022-12-14T14:37:39.262Z,2.97
2022-12-14T14:40:37.935Z,2.65
2022-12-14T14:43:35.235Z,3.15
2022-12-14T14:46:05.856Z,2.90
2022-12-14T14:48:56.641Z,3.20
2022-12-14T14:51:32.996Z,2.88
2022-12-14T14:55:10.652Z,4.65
2022-12-14T14:57:36.878Z,2.70
2022-12-14T15:00:15.496Z,3.00
2022-12-14T15:02:44.330Z,1.92
2022-12-14T15:08:20.021Z,2.60
2022-12-14T15:10:49.816Z,2.60
2022-12-14T15:13:32.370Z,2.75
2022-12-14T15:16:01.258Z,2.28
2022-12-14T15:18:32.575Z,2.45
2022-12-14T15:21:14.620Z,2.50
2022-12-14T15:23:49.577Z,2.35
2022-12-14T15:26:35.751Z,3.10
2022-12-14T15:29:05.625Z,2.78
2022-12-14T15:31:59.261Z,2.65
2022-12-14T15:34:28.256Z,2.33
2022-12-14T15:36:56.416Z,2.50
2022-12-14T15:39:38.472Z,2.10
2022-12-14T15:42:12.659Z,2.83
2022-12-14T15:44:48.344Z,3.00
2022-12-14T15:47:26.013Z,3.00
2022-12-14T15:49:59.760Z,10.77
2022-12-14T15:52:31.149Z,11.25
2022-12-14T15:54:59.907Z,3.60
2022-12-14T15:57:27.402Z,2.53
2022-12-14T15:59:57.692Z,2.72
2022-12-14T16:02:34.282Z,2.67
2022-12-14T16:05:05.219Z,2.42
2022-12-14T16:07:38.774Z,4.22
2022-12-14T16:10:21.324Z,3.17
2022-12-14T16:12:52.820Z,5.60
2022-12-14T16:15:24.324Z,3.83
2022-12-14T16:18:01.097Z,3.53
2022-12-14T16:20:32.741Z,3.25
2022-12-14T16:23:22.629Z,4.50
2022-12-14T16:26:01.005Z,3.38
2022-12-14T16:28:32.243Z,3.80
2022-12-14T16:31:03.361Z,4.07
2022-12-14T16:33:34.244Z,3.40
2022-12-14T16:36:09.127Z,3.10
2022-12-14T16:38:53.886Z,3.67
2022-12-14T16:41:33.620Z,3.50
2022-12-14T16:44:02.121Z,4.07
2022-12-14T16:46:29.635Z,4.20
2022-12-14T16:49:17.823Z,3.80
2022-12-14T16:52:06.227Z,4.03
2022-12-14T16:54:35.258Z,3.35
2022-12-14T16:57:20.157Z,3.83
2022-12-14T16:59:57.248Z,3.88
2022-12-14T17:02:52.860Z,3.85
2022-12-14T17:05:23.546Z,3.65
2022-12-14T17:07:51.232Z,3.42
2022-12-14T17:10:22.020Z,3.08
2022-12-14T17:12:50.065Z,3.60
2022-12-14T17:15:21.582Z,3.40
2022-12-14T17:17:52.114Z,3.95
2022-12-14T17:20:25.264Z,3.58
2022-12-14T17:22:54.168Z,3.95
2022-12-14T17:25:21.838Z,3.55
2022-12-14T17:27:50.026Z,3.90
2022-12-14T17:30:19.888Z,4.18
2022-12-14T17:32:48.526Z,4.10
2022-12-14T17:35:20.748Z,3.63
2022-12-14T17:37:49.335Z,3.65
2022-12-14T17:40:17.260Z,3.80
2022-12-14T17:42:51.541Z,3.92
2022-12-14T17:45:26.051Z,3.83
2022-12-14T17:47:54.636Z,3.60
2022-12-14T17:50:23.187Z,3.67
2022-12-14T17:52:51.168Z,3.50
2022-12-14T17:55:23.349Z,3.50
2022-12-14T17:57:51.587Z,3.40
2022-12-14T18:00:37.964Z,4.00
2022-12-14T18:03:06.013Z,4.50
2022-12-14T18:05:34.199Z,3.03
2022-12-14T18:08:02.147Z,3.67
2022-12-14T18:10:30.210Z,3.97
2022-12-14T18:12:59.160Z,3.40
2022-12-14T18:15:30.870Z,3.10
2022-12-14T18:17:58.880Z,3.30
2022-12-14T18:20:27.297Z,3.03
2022-12-14T18:22:55.544Z,3.38
2022-12-14T18:25:31.193Z,3.60
2022-12-14T18:28:01.374Z,3.30
2022-12-14T18:30:35.035Z,3.50
2022-12-14T18:33:04.796Z,3.22
2022-12-14T18:35:34.287Z,3.47
2022-12-14T18:38:01.835Z,3.17
2022-12-14T18:40:30.557Z,2.90
2022-12-14T18:42:58.611Z,3.40
2022-12-14T18:45:29.845Z,11.55
2022-12-14T18:47:57.768Z,3.75
2022-12-14T18:50:25.569Z,8.95
2022-12-14T18:52:53.147Z,3.65
2022-12-14T18:55:23.383Z,3.70
2022-12-14T18:57:53.834Z,4.13
2022-12-14T19:00:23.805Z,3.53
2022-12-14T19:02:51.654Z,2.83
2022-12-14T19:05:26.071Z,4.10
2022-12-14T19:07:55.173Z,3.67
2022-12-14T19:10:25.620Z,3.22
2022-12-14T19:12:55.272Z,3.30
2022-12-14T19:15:26.455Z,3.03
2022-12-14T19:17:54.325Z,3.63
2022-12-14T19:20:22.655Z,3.88
2022-12-14T19:22:50.682Z,3.55
2022-12-14T19:25:19.847Z,3.50
2022-12-14T19:30:37.505Z,3.03
2022-12-14T19:33:05.345Z,2.80
2022-12-14T19:35:33.307Z,3.75
2022-12-14T19:38:03.344Z,2.83
2022-12-14T19:40:30.800Z,3.67
2022-12-14T19:43:12.344Z,3.78
2022-12-14T19:45:40.510Z,3.10
2022-12-14T19:48:12.937Z,2.05
2022-12-14T19:53:08.245Z,3.28
2022-12-14T19:55:36.023Z,3.20
2022-12-14T19:58:03.839Z,2.95
2022-12-14T20:00:32.646Z,3.17
2022-12-14T20:03:01.688Z,3.28
2022-12-14T20:08:11.646Z,3.53
2022-12-14T20:10:39.286Z,3.47
2022-12-14T20:13:08.393Z,2.97
2022-12-14T20:15:37.724Z,3.17
2022-12-14T20:18:14.393Z,3.92
2022-12-14T20:20:42.130Z,3.65
2022-12-14T20:23:09.725Z,3.10
2022-12-14T20:25:37.193Z,3.28
2022-12-14T20:28:11.205Z,3.92
2022-12-14T20:30:49.924Z,3.42
2022-12-14T20:33:25.120Z,3.20
2022-12-14T20:35:59.792Z,3.22
2022-12-14T20:38:31.374Z,3.60
2022-12-14T20:41:10.941Z,3.15
2022-12-14T20:43:45.445Z,3.47
2022-12-14T20:46:34.812Z,3.15
2022-12-14T20:49:09.864Z,3.42
2022-12-14T20:51:42.048Z,3.30
2022-12-14T20:54:14.311Z,3.60
2022-12-14T20:56:45.574Z,3.23
2022-12-14T20:59:19.380Z,2.90
2022-12-14T21:01:55.174Z,3.40
2022-12-14T21:04:23.740Z,8.90
2022-12-14T21:06:51.188Z,3.63
2022-12-14T21:09:18.630Z,6.40
2022-12-14T21:12:03.637Z,18.98
2022-12-14T21:43:53.075Z,8.00
2022-12-14T21:46:20.728Z,3.60
2022-12-14T21:48:48.027Z,4.20
2022-12-14T21:51:17.006Z,5.78
2022-12-14T21:54:01.163Z,3.78
2022-12-14T21:56:47.881Z,3.63
2022-12-14T21:59:26.132Z,3.35
2022-12-14T22:01:54.357Z,3.35
2022-12-14T22:04:23.005Z,3.70
2022-12-14T22:06:51.308Z,3.85
2022-12-14T22:09:20.088Z,3.85
2022-12-14T22:11:47.802Z,3.53
2022-12-14T22:14:16.719Z,3.75
2022-12-14T22:16:44.561Z,3.80
2022-12-14T22:19:29.772Z,3.72
2022-12-14T22:21:57.375Z,3.85
2022-12-14T22:24:25.270Z,3.47
2022-12-14T22:26:52.820Z,4.53
2022-12-14T22:29:22.286Z,4.22
2022-12-14T22:31:50.319Z,4.25
2022-12-14T22:34:24.284Z,4.32
2022-12-14T22:36:52.694Z,4.38
2022-12-14T22:39:20.441Z,3.92
2022-12-14T22:41:49.281Z,3.53
2022-12-14T22:44:16.479Z,4.25
2022-12-14T22:46:43.752Z,4.40
2022-12-14T22:49:17.038Z,4.70
2022-12-14T22:51:44.199Z,4.07
2022-12-14T22:54:24.990Z,4.18
2022-12-14T22:57:02.678Z,4.45
2022-12-14T22:59:58.655Z,3.75
2022-12-14T23:02:26.237Z,5.07
2022-12-14T23:04:53.538Z,3.83
2022-12-14T23:07:21.049Z,3.75
2022-12-14T23:10:06.457Z,4.70
2022-12-14T23:12:52.217Z,4.63
2022-12-14T23:15:37.773Z,5.05
2022-12-14T23:18:25.288Z,4.72
2022-12-14T23:21:11.532Z,5.05
2022-12-14T23:23:58.743Z,5.40
2022-12-14T23:26:44.448Z,3.35
2022-12-14T23:29:30.381Z,5.35
2022-12-14T23:32:16.162Z,5.15
2022-12-14T23:35:01.951Z,5.07
2022-12-14T23:37:49.159Z,4.32
2022-12-14T23:40:34.924Z,4.40
2022-12-14T23:43:36.773Z,5.80
2022-12-14T23:46:24.799Z,4.38
2022-12-14T23:49:15.344Z,5.05
2022-12-14T23:52:01.817Z,4.80
2022-12-14T23:54:47.700Z,4.28
2022-12-14T23:57:33.424Z,4.45
